createdAt,value
2019-01-20T00:00:38.531Z,-0.80
2019-01-20T00:02:40.266Z,-0.80
2019-01-20T00:04:42.020Z,-0.70
2019-01-20T00:06:43.727Z,-0.70
2019-01-20T00:08:45.446Z,-0.70
2019-01-20T00:10:47.174Z,-0.80
2019-01-20T00:12:49.006Z,-0.80
2019-01-20T00:14:50.776Z,-0.90
2019-01-20T00:16:52.536Z,-0.80
2019-01-20T00:18:54.263Z,-0.80
2019-01-20T00:20:55.992Z,-0.90
2019-01-20T00:22:57.807Z,-1.00
2019-01-20T00:24:59.577Z,-1.00
2019-01-20T00:27:01.384Z,-1.00
2019-01-20T00:29:04.098Z,-1.00
2019-01-20T00:31:05.843Z,-1.00
2019-01-20T00:33:07.719Z,-1.00
2019-01-20T00:35:09.618Z,-1.10
2019-01-20T00:37:11.620Z,-1.00
2019-01-20T00:39:13.315Z,-1.00
2019-01-20T00:41:15.122Z,-1.00
2019-01-20T00:43:16.870Z,-1.00
2019-01-20T00:45:18.795Z,-0.90
2019-01-20T00:47:20.511Z,-1.00
2019-01-20T00:49:22.264Z,-1.10
2019-01-20T00:51:23.982Z,-1.10
2019-01-20T00:53:25.694Z,-1.10
2019-01-20T00:55:27.694Z,-1.20
2019-01-20T00:57:31.681Z,-1.30
2019-01-20T00:59:33.402Z,-1.20
2019-01-20T01:01:35.758Z,-1.20
2019-01-20T01:03:37.902Z,-1.30
2019-01-20T01:05:40.168Z,-1.40
2019-01-20T01:07:42.099Z,-1.40
2019-01-20T01:09:44.112Z,-1.30
2019-01-20T01:11:46.684Z,-1.20
2019-01-20T01:13:48.814Z,-1.10
2019-01-20T01:15:50.887Z,-1.20
2019-01-20T01:17:52.605Z,-1.30
2019-01-20T01:19:55.411Z,-1.30
2019-01-20T01:21:57.319Z,-1.40
2019-01-20T01:23:59.026Z,-1.40
2019-01-20T01:26:00.723Z,-1.40
2019-01-20T01:28:03.030Z,-1.30
2019-01-20T01:30:08.050Z,-1.20
2019-01-20T01:32:09.958Z,-1.30
2019-01-20T01:34:11.850Z,-1.30
2019-01-20T01:36:13.559Z,-1.40
2019-01-20T01:38:15.270Z,-1.30
2019-01-20T01:40:17.874Z,-1.30
2019-01-20T01:42:19.687Z,-1.20
2019-01-20T01:44:21.435Z,-1.30
2019-01-20T01:46:23.427Z,-1.20
2019-01-20T01:48:25.138Z,-1.20
2019-01-20T01:50:26.879Z,-1.30
2019-01-20T01:52:28.587Z,-1.20
2019-01-20T01:54:30.306Z,-1.10
2019-01-20T01:56:32.040Z,-1.10
2019-01-20T01:58:33.850Z,-1.10
2019-01-20T02:00:35.666Z,-1.10
2019-01-20T02:02:37.568Z,-1.00
2019-01-20T02:04:39.274Z,-1.00
2019-01-20T02:06:41.083Z,-1.00
2019-01-20T02:08:43.447Z,-1.00
2019-01-20T02:10:45.160Z,-1.10
2019-01-20T02:12:48.194Z,-1.10
2019-01-20T02:14:50.087Z,-1.10
2019-01-20T02:16:52.035Z,-1.20
2019-01-20T02:18:53.742Z,-1.20
2019-01-20T02:20:55.487Z,-1.20
2019-01-20T02:22:57.218Z,-1.20
2019-01-20T02:24:59.244Z,-1.20
2019-01-20T02:27:00.999Z,-1.30
2019-01-20T02:29:03.722Z,-1.10
2019-01-20T02:31:05.781Z,-1.20
2019-01-20T02:33:07.607Z,-1.30
2019-01-20T02:35:09.510Z,-1.20
2019-01-20T02:37:11.328Z,-1.20
2019-01-20T02:39:13.062Z,-1.20
2019-01-20T02:41:14.781Z,-1.20
2019-01-20T02:43:16.505Z,-1.20
2019-01-20T02:45:18.322Z,-1.30
2019-01-20T02:47:20.032Z,-1.30
2019-01-20T02:49:21.870Z,-1.10
2019-01-20T02:51:23.676Z,-1.10
2019-01-20T02:53:25.387Z,-1.10
2019-01-20T02:55:27.368Z,-1.20
2019-01-20T02:57:29.199Z,-1.30
2019-01-20T02:59:30.920Z,-1.30
2019-01-20T03:01:32.624Z,-1.30
2019-01-20T03:03:34.455Z,-1.40
2019-01-20T03:05:36.620Z,-1.30
2019-01-20T03:07:38.336Z,-1.30
2019-01-20T03:09:40.154Z,-1.40
2019-01-20T03:11:41.863Z,-1.40
2019-01-20T03:13:43.577Z,-1.40
2019-01-20T03:15:45.418Z,-1.40
2019-01-20T03:17:47.224Z,-1.30
2019-01-20T03:19:48.934Z,-1.40
2019-01-20T03:21:50.826Z,-1.30
2019-01-20T03:23:52.526Z,-1.40
2019-01-20T03:25:54.264Z,-1.30
2019-01-20T03:27:56.095Z,-1.20
2019-01-20T03:29:57.811Z,-1.20
2019-01-20T03:31:59.534Z,-1.30
2019-01-20T03:34:01.761Z,-1.40
2019-01-20T03:36:03.670Z,-1.30
2019-01-20T03:38:05.473Z,-1.40
2019-01-20T03:40:09.314Z,-1.30
2019-01-20T03:42:12.106Z,-1.40
2019-01-20T03:44:14.247Z,-1.50
2019-01-20T03:46:16.114Z,-1.50
2019-01-20T03:48:17.937Z,-1.40
2019-01-20T03:50:19.762Z,-1.50
2019-01-20T03:52:21.715Z,-1.60
2019-01-20T03:54:23.521Z,-1.60
2019-01-20T03:56:25.541Z,-1.60
2019-01-20T03:58:27.363Z,-1.60
2019-01-20T04:00:29.348Z,-1.60
2019-01-20T04:02:31.433Z,-1.60
2019-01-20T04:04:33.419Z,-1.60
2019-01-20T04:06:35.142Z,-1.60
2019-01-20T04:08:36.852Z,-1.60
2019-01-20T04:10:38.704Z,-1.60
2019-01-20T04:12:40.423Z,-1.40
2019-01-20T04:14:42.230Z,-1.50
2019-01-20T04:16:44.329Z,-1.40
2019-01-20T04:18:46.042Z,-1.40
2019-01-20T04:20:47.750Z,-1.30
2019-01-20T04:22:49.609Z,-1.40
2019-01-20T04:24:51.410Z,-1.50
2019-01-20T04:26:53.386Z,-1.40
2019-01-20T04:28:55.222Z,-1.40
2019-01-20T04:30:57.043Z,-1.40
2019-01-20T04:32:58.775Z,-1.40
2019-01-20T04:35:00.626Z,-1.40
2019-01-20T04:37:02.452Z,-1.40
2019-01-20T04:39:05.935Z,-1.40
2019-01-20T04:41:07.841Z,-1.40
2019-01-20T04:43:09.811Z,-1.40
2019-01-20T04:45:12.006Z,-1.40
2019-01-20T04:47:14.207Z,-1.40
2019-01-20T04:49:15.920Z,-1.30
2019-01-20T04:51:17.622Z,-1.30
2019-01-20T04:53:19.336Z,-1.30
2019-01-20T04:55:21.135Z,-1.30
2019-01-20T04:57:23.246Z,-1.20
2019-01-20T04:59:25.131Z,-1.30
2019-01-20T05:01:26.834Z,-1.30
2019-01-20T05:03:28.562Z,-1.40
2019-01-20T05:05:30.448Z,-1.50
2019-01-20T05:07:32.250Z,-1.50
2019-01-20T05:09:34.011Z,-1.40
2019-01-20T05:11:35.813Z,-1.40
2019-01-20T05:13:37.540Z,-1.40
2019-01-20T05:15:39.250Z,-1.50
2019-01-20T05:17:41.108Z,-1.50
2019-01-20T05:19:42.802Z,-1.30
2019-01-20T05:21:44.518Z,-1.30
2019-01-20T05:23:46.357Z,-1.20
2019-01-20T05:25:48.169Z,-1.30
2019-01-20T05:27:49.900Z,-1.30
2019-01-20T05:29:51.734Z,-1.30
2019-01-20T05:31:53.451Z,-1.40
2019-01-20T05:33:55.156Z,-1.40
2019-01-20T05:35:56.908Z,-1.50
2019-01-20T05:37:58.730Z,-1.50
2019-01-20T05:40:00.450Z,-1.40
2019-01-20T05:42:02.644Z,-1.50
2019-01-20T05:44:04.361Z,-1.50
2019-01-20T05:46:06.073Z,-1.50
2019-01-20T05:48:07.905Z,-1.50
2019-01-20T05:50:10.905Z,-1.50
2019-01-20T05:52:12.682Z,-1.50
2019-01-20T05:54:14.421Z,-1.50
2019-01-20T05:56:16.241Z,-1.40
2019-01-20T05:58:18.058Z,-1.50
2019-01-20T06:00:21.990Z,-1.80
2019-01-20T06:02:23.699Z,-1.80
2019-01-20T06:04:25.550Z,-1.60
2019-01-20T06:06:27.286Z,-1.80
2019-01-20T06:08:28.986Z,-1.80
2019-01-20T06:10:30.679Z,-1.90
2019-01-20T06:12:32.510Z,-1.90
2019-01-20T06:14:34.225Z,-2.00
2019-01-20T06:16:36.025Z,-1.90
2019-01-20T06:18:37.836Z,-1.90
2019-01-20T06:20:39.956Z,-1.80
2019-01-20T06:22:41.668Z,-1.90
2019-01-20T06:24:43.386Z,-1.90
2019-01-20T06:26:45.216Z,-1.80
2019-01-20T06:28:46.974Z,-1.70
2019-01-20T06:30:48.725Z,-1.60
2019-01-20T06:32:50.606Z,-1.80
2019-01-20T06:34:52.329Z,-1.70
2019-01-20T06:36:54.030Z,-1.90
2019-01-20T06:38:55.781Z,-1.80
2019-01-20T06:40:57.510Z,-1.80
2019-01-20T06:43:02.242Z,-1.80
2019-01-20T06:45:04.472Z,-1.90
2019-01-20T06:47:06.206Z,-1.90
2019-01-20T06:49:07.919Z,-1.70
2019-01-20T06:51:09.742Z,-1.80
2019-01-20T06:53:11.739Z,-1.80
2019-01-20T06:55:13.661Z,-1.90
2019-01-20T06:57:15.610Z,-1.70
2019-01-20T06:59:17.399Z,-1.70
2019-01-20T07:01:19.107Z,-1.70
2019-01-20T07:03:21.087Z,-1.80
2019-01-20T07:05:23.180Z,-1.60
2019-01-20T07:07:24.986Z,-1.80
2019-01-20T07:09:26.699Z,-1.70
2019-01-20T07:11:28.721Z,-1.80
2019-01-20T07:13:30.433Z,-1.70
2019-01-20T07:15:32.312Z,-1.80
2019-01-20T07:17:34.055Z,-1.80
2019-01-20T07:19:35.898Z,-1.80
2019-01-20T07:21:37.627Z,-1.70
2019-01-20T07:23:39.342Z,-1.60
2019-01-20T07:25:41.087Z,-1.70
2019-01-20T07:31:04.308Z,-1.90
2019-01-20T07:33:06.620Z,-1.80
2019-01-20T07:35:08.800Z,-1.80
2019-01-20T07:37:10.673Z,-1.80
2019-01-20T07:39:12.541Z,-1.90
2019-01-20T07:41:14.567Z,-2.00
2019-01-20T07:43:16.923Z,-2.00
2019-01-20T07:46:17.218Z,-2.20
2019-01-20T07:49:00.308Z,-2.10
2019-01-20T07:51:03.199Z,-2.00
2019-01-20T07:53:04.967Z,-1.80
2019-01-20T07:55:07.718Z,-1.90
2019-01-20T07:57:10.748Z,-1.90
2019-01-20T07:59:13.067Z,-1.90
2019-01-20T08:01:14.815Z,-1.80
2019-01-20T08:03:40.810Z,-1.60
2019-01-20T08:06:32.311Z,-1.60
2019-01-20T08:09:02.445Z,-1.50
2019-01-20T08:11:04.535Z,-1.50
2019-01-20T08:13:06.547Z,-1.50
2019-01-20T08:15:08.950Z,-1.50
2019-01-20T08:17:11.370Z,-1.60
2019-01-20T08:19:16.079Z,-1.60
2019-01-20T08:21:17.911Z,-1.60
2019-01-20T08:23:19.664Z,-1.50
2019-01-20T08:25:21.663Z,-1.50
2019-01-20T08:27:23.547Z,-1.40
2019-01-20T08:29:31.276Z,-1.30
2019-01-20T08:32:20.423Z,-1.40
2019-01-20T08:34:22.598Z,-1.50
2019-01-20T08:36:24.593Z,-1.40
2019-01-20T08:38:26.374Z,-1.40
2019-01-20T08:40:29.711Z,-1.50
2019-01-20T08:42:31.558Z,-1.60
2019-01-20T08:44:37.369Z,-1.50
2019-01-20T08:47:16.606Z,-1.30
2019-01-20T08:49:18.354Z,-1.30
2019-01-20T08:51:20.286Z,-1.20
2019-01-20T08:53:22.274Z,-1.10
2019-01-20T08:55:24.104Z,-1.10
2019-01-20T08:57:27.210Z,-0.90
2019-01-20T08:59:28.975Z,-0.80
2019-01-20T09:01:30.814Z,-0.70
2019-01-20T09:03:33.539Z,-0.60
2019-01-20T09:05:35.399Z,-0.50
2019-01-20T09:07:38.440Z,-0.60
2019-01-20T09:09:40.363Z,-0.60
2019-01-20T09:11:42.639Z,-0.60
2019-01-20T09:13:44.376Z,-0.40
2019-01-20T09:15:46.362Z,-0.30
2019-01-20T09:17:48.338Z,-0.20
2019-01-20T09:19:50.090Z,-0.40
2019-01-20T09:21:55.358Z,-0.20
2019-01-20T09:23:57.190Z,-0.20
2019-01-20T09:25:59.272Z,-0.10
2019-01-20T09:28:01.304Z,-0.10
2019-01-20T09:30:05.510Z,0.10
2019-01-20T09:32:07.354Z,0.20
2019-01-20T09:34:12.295Z,-0.10
2019-01-20T09:36:15.192Z,-0.30
2019-01-20T09:38:16.999Z,-0.20
2019-01-20T09:40:20.907Z,-0.20
2019-01-20T09:42:22.754Z,-0.30
2019-01-20T09:44:24.464Z,0.00
2019-01-20T09:46:26.177Z,0.10
2019-01-20T09:48:28.153Z,0.20
2019-01-20T09:50:29.870Z,0.30
2019-01-20T09:52:31.686Z,0.00
2019-01-20T09:54:33.418Z,0.10
2019-01-20T09:56:35.230Z,0.30
2019-01-20T09:58:36.971Z,0.40
2019-01-20T10:00:38.807Z,0.20
2019-01-20T10:02:41.703Z,0.40
2019-01-20T10:04:43.887Z,0.50
2019-01-20T10:06:45.744Z,0.70
2019-01-20T10:08:47.626Z,0.80
2019-01-20T10:10:49.380Z,0.80
2019-01-20T10:12:51.267Z,1.00
2019-01-20T10:14:53.052Z,1.30
2019-01-20T10:16:54.856Z,1.60
2019-01-20T10:18:56.603Z,1.90
2019-01-20T10:20:58.415Z,2.10
2019-01-20T10:23:00.314Z,2.10
2019-01-20T10:25:02.642Z,2.10
2019-01-20T10:27:04.455Z,2.20
2019-01-20T10:29:06.285Z,2.00
2019-01-20T10:31:08.076Z,2.10
2019-01-20T10:33:09.852Z,2.40
2019-01-20T10:35:12.198Z,2.70
2019-01-20T10:37:14.053Z,2.50
2019-01-20T10:39:15.756Z,2.60
2019-01-20T10:41:17.562Z,2.40
2019-01-20T10:43:19.340Z,2.70
2019-01-20T10:45:21.059Z,2.80
2019-01-20T10:47:22.766Z,2.90
2019-01-20T10:49:24.619Z,3.00
2019-01-20T10:51:26.833Z,2.80
2019-01-20T10:53:28.712Z,3.20
2019-01-20T10:55:30.796Z,3.70
2019-01-20T10:57:32.603Z,3.80
2019-01-20T10:59:34.566Z,3.90
2019-01-20T11:01:36.405Z,3.90
2019-01-20T11:03:38.204Z,4.10
2019-01-20T11:05:40.070Z,4.60
2019-01-20T11:07:41.807Z,5.10
2019-01-20T11:09:44.290Z,5.40
2019-01-20T11:11:46.269Z,5.60
2019-01-20T11:13:48.259Z,6.30
2019-01-20T11:15:50.043Z,6.80
2019-01-20T11:17:52.889Z,6.90
2019-01-20T11:19:54.789Z,6.70
2019-01-20T11:21:56.682Z,6.50
2019-01-20T11:23:58.601Z,7.10
2019-01-20T11:26:00.527Z,7.20
2019-01-20T11:28:02.453Z,7.00
2019-01-20T11:30:05.836Z,7.00
2019-01-20T11:32:07.591Z,7.10
2019-01-20T11:34:09.467Z,7.10
2019-01-20T11:36:11.312Z,7.60
2019-01-20T11:38:13.074Z,8.10
2019-01-20T11:40:15.097Z,8.70
2019-01-20T11:42:17.986Z,8.80
2019-01-20T11:44:19.707Z,8.90
2019-01-20T11:46:21.432Z,8.40
2019-01-20T11:48:26.068Z,8.50
2019-01-20T11:50:27.880Z,8.20
2019-01-20T11:52:29.744Z,8.70
2019-01-20T11:54:31.471Z,8.10
2019-01-20T11:56:33.298Z,7.50
2019-01-20T11:58:35.084Z,7.70
2019-01-20T12:00:37.022Z,8.30
2019-01-20T12:02:38.767Z,9.00
2019-01-20T12:04:40.562Z,9.10
2019-01-20T12:06:49.289Z,9.60
2019-01-20T12:08:51.139Z,10.10
2019-01-20T12:10:52.938Z,10.50
2019-01-20T12:13:05.901Z,10.50
2019-01-20T12:15:09.446Z,10.90
2019-01-20T12:17:11.288Z,10.80
2019-01-20T12:19:13.336Z,10.90
2019-01-20T12:21:15.172Z,12.10
2019-01-20T12:23:17.212Z,12.40
2019-01-20T12:25:19.183Z,11.90
2019-01-20T12:27:20.923Z,12.50
2019-01-20T12:29:22.751Z,13.00
2019-01-20T12:31:24.500Z,13.40
2019-01-20T12:33:26.295Z,13.90
2019-01-20T12:35:28.243Z,14.20
2019-01-20T12:37:30.219Z,13.90
2019-01-20T12:39:32.079Z,13.80
2019-01-20T12:41:34.103Z,14.50
2019-01-20T12:43:35.831Z,14.80
2019-01-20T12:45:37.642Z,14.60
2019-01-20T12:47:39.402Z,14.60
2019-01-20T12:49:41.813Z,14.80
2019-01-20T12:51:43.537Z,13.80
2019-01-20T12:53:45.497Z,13.10
2019-01-20T12:55:47.234Z,13.90
2019-01-20T12:57:48.955Z,13.10
2019-01-20T12:59:50.680Z,13.90
2019-01-20T13:01:52.466Z,14.10
2019-01-20T13:03:54.253Z,14.30
2019-01-20T13:05:56.146Z,14.90
2019-01-20T13:07:57.871Z,15.40
2019-01-20T13:09:59.628Z,15.70
2019-01-20T13:12:01.580Z,15.20
2019-01-20T13:14:03.626Z,15.70
2019-01-20T13:16:08.407Z,16.00
2019-01-20T13:18:10.138Z,15.70
2019-01-20T13:20:14.758Z,16.00
2019-01-20T13:22:16.495Z,15.90
2019-01-20T13:24:18.457Z,16.40
2019-01-20T13:26:20.623Z,16.70
2019-01-20T13:28:22.510Z,16.90
2019-01-20T13:30:25.761Z,16.40
2019-01-20T13:32:27.612Z,16.50
2019-01-20T13:34:29.326Z,16.20
2019-01-20T13:36:31.148Z,15.20
2019-01-20T13:38:32.940Z,15.90
2019-01-20T13:40:46.670Z,15.80
2019-01-20T13:42:48.494Z,16.70
2019-01-20T13:44:50.382Z,15.90
2019-01-20T13:46:52.311Z,16.50
2019-01-20T13:48:54.152Z,16.10
2019-01-20T13:50:55.879Z,16.30
2019-01-20T13:52:57.587Z,16.00
2019-01-20T13:54:59.314Z,16.90
2019-01-20T13:57:01.315Z,16.00
2019-01-20T13:59:03.343Z,15.70
2019-01-20T14:01:05.262Z,15.50
2019-01-20T14:03:06.986Z,14.70
2019-01-20T14:05:08.867Z,15.20
2019-01-20T14:07:11.021Z,15.00
2019-01-20T14:09:12.971Z,14.80
2019-01-20T14:11:14.805Z,14.70
2019-01-20T14:13:16.688Z,14.10
2019-01-20T14:15:18.630Z,13.70
2019-01-20T14:17:21.465Z,13.50
2019-01-20T14:19:23.191Z,13.00
2019-01-20T14:21:25.179Z,12.90
2019-01-20T14:23:27.002Z,13.00
2019-01-20T14:25:28.826Z,12.60
2019-01-20T14:27:31.390Z,12.10
2019-01-20T14:29:33.224Z,12.00
2019-01-20T14:31:34.946Z,11.80
2019-01-20T14:33:36.842Z,11.40
2019-01-20T14:35:38.592Z,10.50
2019-01-20T14:37:40.690Z,9.90
2019-01-20T14:39:42.425Z,10.00
2019-01-20T14:41:44.147Z,10.00
2019-01-20T14:43:46.021Z,10.50
2019-01-20T14:45:47.998Z,10.80
2019-01-20T14:47:49.743Z,10.50
2019-01-20T14:49:51.539Z,9.90
2019-01-20T14:51:53.277Z,10.10
2019-01-20T14:53:55.354Z,9.10
2019-01-20T14:55:57.396Z,8.70
2019-01-20T14:57:59.322Z,9.20
2019-01-20T15:00:01.162Z,9.10
2019-01-20T15:02:09.451Z,8.70
2019-01-20T15:04:12.182Z,8.10
2019-01-20T15:06:14.290Z,7.50
2019-01-20T15:08:16.477Z,7.60
2019-01-20T15:10:18.427Z,7.10
2019-01-20T15:12:20.398Z,6.40
2019-01-20T15:14:22.313Z,6.70
2019-01-20T15:16:24.167Z,5.90
2019-01-20T15:18:25.935Z,5.70
2019-01-20T15:20:27.734Z,5.40
2019-01-20T15:22:29.634Z,5.10
2019-01-20T15:24:31.575Z,4.90
2019-01-20T15:26:33.297Z,4.40
2019-01-20T15:28:35.996Z,4.10
2019-01-20T15:30:37.920Z,3.80
2019-01-20T15:32:39.626Z,3.60
2019-01-20T15:34:41.634Z,3.00
2019-01-20T15:36:43.339Z,2.80
2019-01-20T15:38:45.047Z,2.50
2019-01-20T15:40:47.131Z,2.40
2019-01-20T15:42:49.083Z,2.40
2019-01-20T15:44:50.790Z,2.00
2019-01-20T15:46:52.762Z,1.80
2019-01-20T15:48:54.474Z,1.70
2019-01-20T15:50:56.191Z,1.50
2019-01-20T15:52:58.218Z,1.30
2019-01-20T15:54:59.926Z,1.20
2019-01-20T15:57:01.658Z,1.20
2019-01-20T15:59:03.518Z,1.10
2019-01-20T16:01:05.274Z,1.10
2019-01-20T16:03:07.484Z,1.20
2019-01-20T16:05:09.506Z,1.10
2019-01-20T16:07:11.236Z,0.90
2019-01-20T16:09:12.961Z,0.90
2019-01-20T16:11:14.832Z,0.70
2019-01-20T16:13:16.550Z,0.60
2019-01-20T16:15:29.929Z,0.60
2019-01-20T16:17:31.794Z,0.70
2019-01-20T16:19:33.528Z,0.70
2019-01-20T16:21:35.623Z,0.40
2019-01-20T16:23:37.791Z,0.40
2019-01-20T16:25:39.531Z,0.20
2019-01-20T16:27:41.533Z,-0.10
2019-01-20T16:29:43.543Z,0.00
2019-01-20T16:31:45.484Z,0.10
2019-01-20T16:33:47.385Z,0.10
2019-01-20T16:35:49.251Z,0.00
2019-01-20T16:37:51.583Z,0.00
2019-01-20T16:39:53.834Z,-0.10
2019-01-20T16:41:56.559Z,0.00
2019-01-20T16:43:58.735Z,-0.10
2019-01-20T16:46:00.646Z,-0.10
2019-01-20T16:48:03.374Z,-0.20
2019-01-20T16:50:07.515Z,-0.20
2019-01-20T16:52:10.763Z,-0.20
2019-01-20T16:54:12.835Z,-0.20
2019-01-20T16:59:38.283Z,-0.20
2019-01-20T17:01:48.059Z,-0.30
2019-01-20T17:03:48.080Z,-0.30
2019-01-20T17:05:49.802Z,-0.40
2019-01-20T17:07:51.878Z,-0.40
2019-01-20T17:09:53.902Z,-0.50
2019-01-20T17:11:55.990Z,-0.50
2019-01-20T17:13:57.731Z,-0.60
2019-01-20T17:15:59.474Z,-0.60
2019-01-20T17:18:01.423Z,-0.50
2019-01-20T17:20:04.879Z,-0.40
2019-01-20T17:22:06.714Z,-0.50
2019-01-20T17:24:08.452Z,-0.50
2019-01-20T17:26:10.585Z,-0.50
2019-01-20T17:28:12.582Z,-0.40
2019-01-20T17:30:17.015Z,-0.50
2019-01-20T17:32:43.935Z,-0.50
2019-01-20T17:34:45.830Z,-0.40
2019-01-20T17:36:47.809Z,-0.70
2019-01-20T17:38:49.844Z,-0.80
2019-01-20T17:40:51.651Z,-1.00
2019-01-20T17:42:53.570Z,-1.20
2019-01-20T17:48:04.206Z,-1.40
2019-01-20T17:50:28.394Z,-1.50
2019-01-20T17:52:30.587Z,-1.70
2019-01-20T17:54:32.496Z,-1.90
2019-01-20T17:56:34.455Z,-1.80
2019-01-20T17:58:36.475Z,-1.80
2019-01-20T18:00:41.250Z,-1.80
2019-01-20T18:02:43.126Z,-1.80
2019-01-20T18:04:45.148Z,-1.90
2019-01-20T18:06:47.124Z,-2.00
2019-01-20T18:08:49.075Z,-2.10
2019-01-20T18:10:51.054Z,-2.10
2019-01-20T18:12:53.450Z,-1.90
2019-01-20T18:14:55.275Z,-1.70
2019-01-20T18:16:57.110Z,-1.80
2019-01-20T18:18:58.814Z,-2.00
2019-01-20T18:21:00.555Z,-2.00
2019-01-20T18:23:02.679Z,-2.10
2019-01-20T18:25:06.766Z,-2.00
2019-01-20T18:27:08.654Z,-1.90
2019-01-20T18:29:10.766Z,-2.00
2019-01-20T18:31:12.490Z,-1.90
2019-01-20T18:33:14.306Z,-1.70
2019-01-20T18:35:17.039Z,-1.60
2019-01-20T18:37:19.067Z,-1.70
2019-01-20T18:39:20.873Z,-1.90
2019-01-20T18:41:22.771Z,-2.00
2019-01-20T18:43:24.863Z,-2.10
2019-01-20T18:45:28.773Z,-2.10
2019-01-20T18:47:30.715Z,-2.10
2019-01-20T18:49:32.564Z,-2.20
2019-01-20T18:51:34.417Z,-2.10
2019-01-20T18:53:36.254Z,-2.30
2019-01-20T18:55:38.511Z,-2.30
2019-01-20T18:57:40.630Z,-2.30
2019-01-20T18:59:42.363Z,-2.20
2019-01-20T19:01:44.292Z,-2.20
2019-01-20T19:03:46.035Z,-2.20
2019-01-20T19:05:49.128Z,-2.20
2019-01-20T19:07:55.339Z,-2.20
2019-01-20T19:10:14.527Z,-2.20
2019-01-20T19:12:16.353Z,-2.30
2019-01-20T19:14:18.922Z,-2.20
2019-01-20T19:16:20.691Z,-2.20
2019-01-20T19:18:22.628Z,-2.20
2019-01-20T19:20:24.612Z,-2.10
2019-01-20T19:22:26.532Z,-2.00
2019-01-20T19:24:28.287Z,-2.00
2019-01-20T19:26:30.135Z,-2.10
2019-01-20T19:28:32.135Z,-2.10
2019-01-20T19:30:34.167Z,-2.00
2019-01-20T19:32:35.950Z,-1.90
2019-01-20T19:34:37.776Z,-1.90
2019-01-20T19:36:39.531Z,-2.00
2019-01-20T19:38:41.344Z,-2.20
2019-01-20T19:40:43.254Z,-2.20
2019-01-20T19:42:45.094Z,-2.30
2019-01-20T19:44:46.818Z,-2.30
2019-01-20T19:46:48.566Z,-2.30
2019-01-20T19:48:51.147Z,-2.20
2019-01-20T19:50:53.172Z,-2.10
2019-01-20T19:52:55.044Z,-2.10
2019-01-20T19:54:56.815Z,-2.10
2019-01-20T19:56:58.571Z,-1.90
2019-01-20T19:59:00.607Z,-1.90
2019-01-20T20:01:02.694Z,-1.80
2019-01-20T20:03:04.723Z,-1.90
2019-01-20T20:05:09.984Z,-1.90
2019-01-20T20:07:11.766Z,-1.90
2019-01-20T20:09:13.674Z,-1.90
2019-01-20T20:11:15.901Z,-1.90
2019-01-20T20:13:25.162Z,-1.90
2019-01-20T20:15:27.256Z,-2.00
2019-01-20T20:17:30.135Z,-2.00
2019-01-20T20:19:32.013Z,-2.10
2019-01-20T20:21:34.190Z,-2.10
2019-01-20T20:23:36.107Z,-2.20
2019-01-20T20:25:38.201Z,-2.20
2019-01-20T20:27:40.264Z,-2.40
2019-01-20T20:29:42.719Z,-2.60
2019-01-20T20:31:48.005Z,-2.60
2019-01-20T20:33:49.890Z,-2.60
2019-01-20T20:35:52.154Z,-2.50
2019-01-20T20:37:54.076Z,-2.50
2019-01-20T20:39:55.974Z,-2.60
2019-01-20T20:41:57.867Z,-2.40
2019-01-20T20:44:02.580Z,-2.40
2019-01-20T20:46:04.563Z,-2.50
2019-01-20T20:48:06.424Z,-2.50
2019-01-20T20:50:09.599Z,-2.50
2019-01-20T20:52:11.501Z,-2.40
2019-01-20T20:54:13.580Z,-2.50
2019-01-20T20:56:15.451Z,-2.50
2019-01-20T20:58:17.222Z,-2.40
2019-01-20T21:00:24.985Z,-2.30
2019-01-20T21:02:26.851Z,-2.30
2019-01-20T21:04:28.824Z,-2.30
2019-01-20T21:06:31.093Z,-2.20
2019-01-20T21:08:32.916Z,-2.30
2019-01-20T21:10:34.887Z,-2.20
2019-01-20T21:12:37.254Z,-2.20
2019-01-20T21:14:39.325Z,-2.40
2019-01-20T21:16:41.218Z,-2.30
2019-01-20T21:18:43.150Z,-2.40
2019-01-20T21:20:45.165Z,-2.50
2019-01-20T21:22:47.063Z,-2.40
2019-01-20T21:24:49.062Z,-2.40
2019-01-20T21:26:51.117Z,-2.40
2019-01-20T21:28:53.050Z,-2.30
2019-01-20T21:30:55.063Z,-2.40
2019-01-20T21:32:57.256Z,-2.50
2019-01-20T21:34:59.303Z,-2.60
2019-01-20T21:37:01.499Z,-2.60
2019-01-20T21:39:06.463Z,-2.60
2019-01-20T21:41:08.457Z,-2.60
2019-01-20T21:43:10.548Z,-2.70
2019-01-20T21:45:12.788Z,-2.70
2019-01-20T21:47:14.740Z,-2.80
2019-01-20T21:49:16.638Z,-2.90
2019-01-20T21:51:18.603Z,-2.80
2019-01-20T21:53:20.497Z,-2.70
2019-01-20T21:55:22.919Z,-2.90
2019-01-20T21:57:24.806Z,-3.00
2019-01-20T21:59:26.817Z,-3.10
2019-01-20T22:01:28.657Z,-3.10
2019-01-20T22:03:30.683Z,-3.10
2019-01-20T22:05:33.144Z,-3.00
2019-01-20T22:07:35.293Z,-2.90
2019-01-20T22:09:37.491Z,-2.90
2019-01-20T22:11:39.290Z,-3.00
2019-01-20T22:13:41.502Z,-2.90
2019-01-20T22:15:44.801Z,-2.90
2019-01-20T22:17:47.247Z,-3.10
2019-01-20T22:19:49.455Z,-3.10
2019-01-20T22:21:52.449Z,-3.10
2019-01-20T22:23:54.513Z,-3.00
2019-01-20T22:25:56.967Z,-3.00
2019-01-20T22:27:58.916Z,-3.00
2019-01-20T22:30:00.761Z,-3.10
2019-01-20T22:32:02.781Z,-3.10
2019-01-20T22:34:04.663Z,-3.20
2019-01-20T22:36:06.435Z,-3.10
2019-01-20T22:38:08.345Z,-3.20
2019-01-20T22:40:11.227Z,-3.20
2019-01-20T22:42:13.404Z,-3.10
2019-01-20T22:44:15.847Z,-3.00
2019-01-20T22:46:17.683Z,-2.90
2019-01-20T22:48:19.743Z,-2.90
2019-01-20T22:50:21.967Z,-2.80
2019-01-20T22:52:23.763Z,-2.70
2019-01-20T22:54:25.495Z,-2.60
2019-01-20T22:56:27.220Z,-2.60
2019-01-20T22:58:28.923Z,-2.70
2019-01-20T23:00:46.303Z,-2.70
2019-01-20T23:02:48.254Z,-2.70
2019-01-20T23:04:49.970Z,-2.60
2019-01-20T23:06:51.700Z,-2.60
2019-01-20T23:08:53.423Z,-2.50
2019-01-20T23:10:55.118Z,-2.40
2019-01-20T23:12:56.822Z,-2.40
2019-01-20T23:14:58.561Z,-2.30
2019-01-20T23:17:07.506Z,-2.50
2019-01-20T23:19:04.058Z,-2.50
2019-01-20T23:21:05.862Z,-2.60
2019-01-20T23:23:07.574Z,-2.80
2019-01-20T23:25:09.382Z,-2.70
2019-01-20T23:27:11.101Z,-2.80
2019-01-20T23:29:13.068Z,-2.70
2019-01-20T23:31:14.772Z,-2.60
2019-01-20T23:33:16.514Z,-2.50
2019-01-20T23:35:18.474Z,-2.40
2019-01-20T23:37:20.423Z,-2.60
2019-01-20T23:39:22.135Z,-2.60
2019-01-20T23:41:23.878Z,-2.80
2019-01-20T23:43:25.570Z,-2.80
2019-01-20T23:45:27.374Z,-2.70
2019-01-20T23:47:29.091Z,-2.80
2019-01-20T23:49:30.814Z,-2.90
2019-01-20T23:51:32.542Z,-3.00
2019-01-20T23:53:34.395Z,-3.00
2019-01-20T23:55:36.258Z,-3.00
2019-01-20T23:57:38.058Z,-3.00
2019-01-20T23:59:39.775Z,-3.00
